createdAt,value
2018-05-10T00:00:38.630Z,24.63
2018-05-10T00:01:38.719Z,24.61
2018-05-10T00:02:38.704Z,24.59
2018-05-10T00:03:39.042Z,24.52
2018-05-10T00:04:38.763Z,24.56
2018-05-10T00:05:38.794Z,24.52
2018-05-10T00:06:38.835Z,24.55
2018-05-10T00:07:38.874Z,24.49
2018-05-10T00:08:38.900Z,24.64
2018-05-10T00:09:38.938Z,24.61
2018-05-10T00:10:39.326Z,24.55
2018-05-10T00:11:38.996Z,24.51
2018-05-10T00:12:39.027Z,24.60
2018-05-10T00:13:39.069Z,24.49
2018-05-10T00:14:39.141Z,24.44
2018-05-10T00:15:39.204Z,24.31
2018-05-10T00:16:39.157Z,24.27
2018-05-10T00:17:39.496Z,24.12
2018-05-10T00:18:39.230Z,23.93
2018-05-10T00:19:39.264Z,23.90
2018-05-10T00:20:39.290Z,23.75
2018-05-10T00:21:39.382Z,23.72
2018-05-10T00:22:39.407Z,23.60
2018-05-10T00:23:39.415Z,23.56
2018-05-10T00:24:39.723Z,23.45
2018-05-10T00:25:39.494Z,23.34
2018-05-10T00:26:39.507Z,23.18
2018-05-10T00:27:39.645Z,23.04
2018-05-10T00:28:39.664Z,22.93
2018-05-10T00:29:39.596Z,22.93
2018-05-10T00:30:39.657Z,22.81
2018-05-10T00:31:39.955Z,22.75
2018-05-10T00:32:39.721Z,22.63
2018-05-10T00:33:39.730Z,22.63
2018-05-10T00:34:39.756Z,22.72
2018-05-10T00:35:39.907Z,22.60
2018-05-10T00:36:39.822Z,22.66
2018-05-10T00:37:39.879Z,22.59
2018-05-10T00:38:40.194Z,22.44
2018-05-10T00:39:39.916Z,22.45
2018-05-10T00:40:40.104Z,22.38
2018-05-10T00:41:39.997Z,22.24
2018-05-10T00:42:40.019Z,22.30
2018-05-10T00:43:40.133Z,22.31
2018-05-10T00:44:40.432Z,22.46
2018-05-10T00:45:40.175Z,22.36
2018-05-10T00:46:40.148Z,22.42
2018-05-10T00:47:40.243Z,22.39
2018-05-10T00:48:40.261Z,22.35
2018-05-10T00:49:40.247Z,22.39
2018-05-10T00:50:40.581Z,22.33
2018-05-10T00:51:40.307Z,22.39
2018-05-10T00:52:40.354Z,22.31
2018-05-10T00:53:40.429Z,22.21
2018-05-10T00:54:40.406Z,22.23
2018-05-10T00:55:40.445Z,22.23
2018-05-10T00:56:40.768Z,22.12
2018-05-10T00:57:40.571Z,22.04
2018-05-10T00:58:40.533Z,22.02
2018-05-10T00:59:40.654Z,22.02
2018-05-10T01:00:40.599Z,21.99
2018-05-10T01:01:40.684Z,21.91
2018-05-10T01:02:40.984Z,21.85
2018-05-10T01:03:40.698Z,21.89
2018-05-10T01:04:40.757Z,21.74
2018-05-10T01:05:40.759Z,21.74
2018-05-10T01:06:40.794Z,21.75
2018-05-10T01:07:40.879Z,21.66
2018-05-10T01:08:41.158Z,21.64
2018-05-10T01:09:40.888Z,21.61
2018-05-10T01:10:40.942Z,21.58
2018-05-10T01:11:40.976Z,21.53
2018-05-10T01:12:41.042Z,21.45
2018-05-10T01:13:41.021Z,21.40
2018-05-10T01:14:41.361Z,21.37
2018-05-10T01:15:41.174Z,21.34
2018-05-10T01:16:41.112Z,21.37
2018-05-10T01:17:41.183Z,21.30
2018-05-10T01:18:41.176Z,21.37
2018-05-10T01:19:41.209Z,21.33
2018-05-10T01:20:41.614Z,21.37
2018-05-10T01:21:41.274Z,21.43
2018-05-10T01:22:41.340Z,21.31
2018-05-10T01:23:41.474Z,21.33
2018-05-10T01:24:41.383Z,21.31
2018-05-10T01:25:41.406Z,21.36
2018-05-10T01:26:41.801Z,21.27
2018-05-10T01:27:41.465Z,21.26
2018-05-10T01:28:41.547Z,21.36
2018-05-10T01:29:41.531Z,21.42
2018-05-10T01:30:41.554Z,21.36
2018-05-10T01:31:41.591Z,21.45
2018-05-10T01:32:42.013Z,21.31
2018-05-10T01:33:41.701Z,21.33
2018-05-10T01:34:41.682Z,21.26
2018-05-10T01:35:41.732Z,21.18
2018-05-10T01:36:41.749Z,21.15
2018-05-10T01:37:41.800Z,21.19
2018-05-10T01:38:42.168Z,21.19
2018-05-10T01:39:41.836Z,21.12
2018-05-10T01:40:42.012Z,21.03
2018-05-10T01:41:41.906Z,21.08
2018-05-10T01:42:41.980Z,21.00
2018-05-10T01:43:42.171Z,21.05
2018-05-10T01:44:42.367Z,21.06
2018-05-10T01:45:42.069Z,21.06
2018-05-10T01:46:42.056Z,21.11
2018-05-10T01:47:42.108Z,21.09
2018-05-10T01:48:42.216Z,21.11
2018-05-10T01:49:42.167Z,21.12
2018-05-10T01:50:42.496Z,21.18
2018-05-10T01:51:42.266Z,21.18
2018-05-10T01:52:42.241Z,21.19
2018-05-10T01:53:42.281Z,21.21
2018-05-10T01:54:42.307Z,21.18
2018-05-10T01:55:42.336Z,21.21
2018-05-10T01:56:42.677Z,21.08
2018-05-10T01:57:42.397Z,21.15
2018-05-10T01:58:42.434Z,21.06
2018-05-10T01:59:42.571Z,21.06
2018-05-10T02:00:42.495Z,21.03
2018-05-10T02:01:42.551Z,20.93
2018-05-10T02:02:42.557Z,20.88
2018-05-10T02:03:42.943Z,20.91
2018-05-10T02:04:42.633Z,20.96
2018-05-10T02:05:42.650Z,20.96
2018-05-10T02:06:42.712Z,20.94
2018-05-10T02:07:42.718Z,20.91
2018-05-10T02:08:42.803Z,20.83
2018-05-10T02:09:42.777Z,20.81
2018-05-10T02:10:43.132Z,20.85
2018-05-10T02:11:42.872Z,20.90
2018-05-10T02:12:42.869Z,20.85
2018-05-10T02:13:42.985Z,20.78
2018-05-10T02:14:43.090Z,20.79
2018-05-10T02:15:42.961Z,20.71
2018-05-10T02:16:43.000Z,20.78
2018-05-10T02:17:43.416Z,20.78
2018-05-10T02:18:43.146Z,20.71
2018-05-10T02:19:43.087Z,20.71
2018-05-10T02:20:43.117Z,20.61
2018-05-10T02:21:43.206Z,20.66
2018-05-10T02:22:43.186Z,20.63
2018-05-10T02:23:43.210Z,20.64
2018-05-10T02:24:43.251Z,20.73
2018-05-10T02:25:43.372Z,20.64
2018-05-10T02:26:43.353Z,20.71
2018-05-10T02:27:43.363Z,20.66
2018-05-10T02:28:43.382Z,20.72
2018-05-10T02:29:43.485Z,20.78
2018-05-10T02:30:43.793Z,20.79
2018-05-10T02:31:43.466Z,20.71
2018-05-10T02:32:43.515Z,20.72
2018-05-10T02:33:43.590Z,20.71
2018-05-10T02:34:43.550Z,20.76
2018-05-10T02:35:43.588Z,20.76
2018-05-10T02:36:43.615Z,20.71
2018-05-10T02:37:43.950Z,20.69
2018-05-10T02:38:43.769Z,20.75
2018-05-10T02:39:43.716Z,20.68
2018-05-10T02:40:43.740Z,20.78
2018-05-10T02:41:43.837Z,20.71
2018-05-10T02:42:43.806Z,20.85
2018-05-10T02:43:43.835Z,20.69
2018-05-10T02:44:44.165Z,20.68
2018-05-10T02:45:43.898Z,20.72
2018-05-10T02:46:43.931Z,20.64
2018-05-10T02:47:43.954Z,20.61
2018-05-10T02:48:44.002Z,20.64
2018-05-10T02:49:44.027Z,20.63
2018-05-10T02:50:44.073Z,20.60
2018-05-10T02:51:44.442Z,20.46
2018-05-10T02:52:44.110Z,20.44
2018-05-10T02:53:44.199Z,20.54
2018-05-10T02:54:44.227Z,20.44
2018-05-10T02:55:44.252Z,20.42
2018-05-10T02:56:44.252Z,20.50
2018-05-10T02:57:44.284Z,20.46
2018-05-10T02:58:44.611Z,20.46
2018-05-10T02:59:44.380Z,20.42
2018-05-10T03:00:44.356Z,20.38
2018-05-10T03:01:44.406Z,20.41
2018-05-10T03:02:44.479Z,20.48
2018-05-10T03:03:44.452Z,20.42
2018-05-10T03:04:44.498Z,20.57
2018-05-10T03:05:44.815Z,20.44
2018-05-10T03:06:44.591Z,20.56
2018-05-10T03:07:44.579Z,20.46
2018-05-10T03:08:44.617Z,20.46
2018-05-10T03:09:44.661Z,20.46
2018-05-10T03:10:44.778Z,20.42
2018-05-10T03:11:44.702Z,20.53
2018-05-10T03:12:45.128Z,20.44
2018-05-10T03:13:44.765Z,20.46
2018-05-10T03:14:44.811Z,20.54
2018-05-10T03:15:44.822Z,20.48
2018-05-10T03:16:44.858Z,20.42
2018-05-10T03:17:44.886Z,20.56
2018-05-10T03:18:45.222Z,20.41
2018-05-10T03:19:45.001Z,20.53
2018-05-10T03:20:44.992Z,20.48
2018-05-10T03:21:45.109Z,20.41
2018-05-10T03:22:45.041Z,20.46
2018-05-10T03:23:45.125Z,20.48
2018-05-10T03:24:45.402Z,20.42
2018-05-10T03:25:45.130Z,20.54
2018-05-10T03:26:45.212Z,20.48
2018-05-10T03:27:45.190Z,20.48
2018-05-10T03:28:45.232Z,20.46
2018-05-10T03:29:45.256Z,20.41
2018-05-10T03:30:45.587Z,20.48
2018-05-10T03:31:45.479Z,20.44
2018-05-10T03:32:45.351Z,20.46
2018-05-10T03:33:45.379Z,20.48
2018-05-10T03:34:45.406Z,20.54
2018-05-10T03:35:45.466Z,20.44
2018-05-10T03:36:45.781Z,20.64
2018-05-10T03:37:45.549Z,20.42
2018-05-10T03:38:45.532Z,20.48
2018-05-10T03:39:45.572Z,20.44
2018-05-10T03:40:45.656Z,20.46
2018-05-10T03:44:46.035Z,20.27
2018-05-10T03:45:45.780Z,20.35
2018-05-10T03:46:45.775Z,20.22
2018-05-10T03:47:45.808Z,20.17
2018-05-10T03:48:45.839Z,20.13
2018-05-10T03:49:45.871Z,20.13
2018-05-10T03:50:46.254Z,20.16
2018-05-10T03:51:45.938Z,20.17
2018-05-10T03:52:45.965Z,20.07
2018-05-10T03:53:45.998Z,20.02
2018-05-10T03:54:46.020Z,20.04
2018-05-10T03:55:46.131Z,20.00
2018-05-10T03:56:46.388Z,20.02
2018-05-10T03:57:46.127Z,20.05
2018-05-10T03:58:46.149Z,20.10
2018-05-10T03:59:46.200Z,20.05
2018-05-10T04:00:46.303Z,20.02
2018-05-10T04:01:46.249Z,20.02
2018-05-10T04:02:46.634Z,20.12
2018-05-10T04:03:46.317Z,20.02
2018-05-10T04:04:46.331Z,20.05
2018-05-10T04:05:46.443Z,20.13
2018-05-10T04:06:46.400Z,20.02
2018-05-10T04:07:46.427Z,20.02
2018-05-10T04:08:46.918Z,20.02
2018-05-10T04:09:46.492Z,20.01
2018-05-10T04:10:46.527Z,19.94
2018-05-10T04:11:46.629Z,20.00
2018-05-10T04:12:46.577Z,19.95
2018-05-10T04:13:46.602Z,19.94
2018-05-10T04:14:46.957Z,19.94
2018-05-10T04:15:46.769Z,20.01
2018-05-10T04:16:46.695Z,20.07
2018-05-10T04:17:46.734Z,20.05
2018-05-10T04:18:46.766Z,20.17
2018-05-10T04:19:46.793Z,20.12
2018-05-10T04:20:47.236Z,20.02
2018-05-10T04:21:46.858Z,20.08
2018-05-10T04:22:46.934Z,20.08
2018-05-10T04:23:47.069Z,20.00
2018-05-10T04:24:47.099Z,20.07
2018-05-10T04:25:46.988Z,20.04
2018-05-10T04:26:47.362Z,19.95
2018-05-10T04:27:47.069Z,19.87
2018-05-10T04:28:47.172Z,19.83
2018-05-10T04:29:47.105Z,19.79
2018-05-10T04:30:47.209Z,19.62
2018-05-10T04:31:47.173Z,19.65
2018-05-10T04:32:47.487Z,19.58
2018-05-10T04:33:47.218Z,19.47
2018-05-10T04:34:47.310Z,19.52
2018-05-10T04:35:47.321Z,19.58
2018-05-10T04:36:47.374Z,19.52
2018-05-10T04:37:47.394Z,19.52
2018-05-10T04:38:47.434Z,19.57
2018-05-10T04:39:47.721Z,19.53
2018-05-10T04:40:47.459Z,19.45
2018-05-10T04:41:47.464Z,19.47
2018-05-10T04:42:47.507Z,19.47
2018-05-10T04:43:47.614Z,19.57
2018-05-10T04:44:47.562Z,19.55
2018-05-10T04:45:47.590Z,19.57
2018-05-10T04:46:48.012Z,19.46
2018-05-10T04:47:47.663Z,19.40
2018-05-10T04:48:47.730Z,19.49
2018-05-10T04:49:47.709Z,19.47
2018-05-10T04:50:47.744Z,19.47
2018-05-10T04:51:47.776Z,19.49
2018-05-10T04:52:47.818Z,19.49
2018-05-10T04:53:48.179Z,19.42
2018-05-10T04:54:47.875Z,19.35
2018-05-10T04:55:47.888Z,19.38
2018-05-10T04:56:47.967Z,19.35
2018-05-10T04:57:48.026Z,19.39
2018-05-10T04:58:47.984Z,19.45
2018-05-10T04:59:48.021Z,19.47
2018-05-10T05:00:48.350Z,19.35
2018-05-10T05:01:48.123Z,19.57
2018-05-10T05:02:48.120Z,19.53
2018-05-10T05:03:48.209Z,19.58
2018-05-10T05:04:48.272Z,19.52
2018-05-10T05:05:48.199Z,19.60
2018-05-10T05:06:48.256Z,19.64
2018-05-10T05:07:48.557Z,19.60
2018-05-10T05:08:48.391Z,19.68
2018-05-10T05:09:48.320Z,19.68
2018-05-10T05:10:48.348Z,19.72
2018-05-10T05:11:48.369Z,19.60
2018-05-10T05:12:48.509Z,19.67
2018-05-10T05:13:48.454Z,19.78
2018-05-10T05:14:48.953Z,19.75
2018-05-10T05:15:48.547Z,19.86
2018-05-10T05:16:48.528Z,19.76
2018-05-10T05:17:48.552Z,19.78
2018-05-10T05:18:48.605Z,19.71
2018-05-10T05:19:48.667Z,19.72
2018-05-10T05:20:48.643Z,19.60
2018-05-10T05:21:49.039Z,19.57
2018-05-10T05:22:48.705Z,19.57
2018-05-10T05:23:48.739Z,19.58
2018-05-10T05:24:48.813Z,19.58
2018-05-10T05:25:48.815Z,19.68
2018-05-10T05:26:48.909Z,19.71
2018-05-10T05:27:48.856Z,19.76
2018-05-10T05:28:49.188Z,19.87
2018-05-10T05:29:48.927Z,20.02
2018-05-10T05:30:48.949Z,20.19
2018-05-10T05:31:48.981Z,20.19
2018-05-10T05:32:49.008Z,20.33
2018-05-10T05:33:49.044Z,20.48
2018-05-10T05:34:49.069Z,20.60
2018-05-10T05:35:49.452Z,20.72
2018-05-10T05:36:49.182Z,20.82
2018-05-10T05:37:49.166Z,20.90
2018-05-10T05:38:49.194Z,20.98
2018-05-10T05:39:49.237Z,21.00
2018-05-10T05:40:49.265Z,21.00
2018-05-10T05:41:49.291Z,21.05
2018-05-10T05:42:49.674Z,21.06
2018-05-10T05:43:49.350Z,21.16
2018-05-10T05:44:49.396Z,21.15
2018-05-10T05:45:49.407Z,21.21
2018-05-10T05:46:49.546Z,21.34
2018-05-10T05:47:49.572Z,21.33
2018-05-10T05:48:49.651Z,21.36
2018-05-10T05:49:49.887Z,21.49
2018-05-10T05:50:49.601Z,21.46
2018-05-10T05:51:49.595Z,21.55
2018-05-10T05:52:49.819Z,21.52
2018-05-10T05:53:49.662Z,21.59
2018-05-10T05:54:49.745Z,21.64
2018-05-10T05:55:50.031Z,21.66
2018-05-10T05:56:49.757Z,21.68
2018-05-10T05:57:49.812Z,21.74
2018-05-10T05:58:49.865Z,21.77
2018-05-10T05:59:49.849Z,21.90
2018-05-10T06:00:49.882Z,21.90
2018-05-10T06:01:50.210Z,21.81
2018-05-10T06:02:49.998Z,21.90
2018-05-10T06:03:50.331Z,21.86
2018-05-10T06:04:50.002Z,21.93
2018-05-10T06:05:50.090Z,21.90
2018-05-10T06:06:50.065Z,21.91
2018-05-10T06:07:50.451Z,21.91
2018-05-10T06:08:50.145Z,22.06
2018-05-10T06:09:50.165Z,22.08
2018-05-10T06:10:50.196Z,22.01
2018-05-10T06:11:50.222Z,22.05
2018-05-10T06:12:50.350Z,22.12
2018-05-10T06:13:50.657Z,22.12
2018-05-10T06:14:50.322Z,22.08
2018-05-10T06:15:50.551Z,22.12
2018-05-10T06:16:50.386Z,22.08
2018-05-10T06:17:50.472Z,22.12
2018-05-10T06:18:50.594Z,22.19
2018-05-10T06:19:50.780Z,22.21
2018-05-10T06:20:50.509Z,22.23
2018-05-10T06:21:50.629Z,22.12
2018-05-10T06:22:50.680Z,22.26
2018-05-10T06:23:50.683Z,22.24
2018-05-10T06:24:50.726Z,22.29
2018-05-10T06:25:51.131Z,22.27
2018-05-10T06:26:50.797Z,22.21
2018-05-10T06:27:50.838Z,22.29
2018-05-10T06:28:50.880Z,22.23
2018-05-10T06:29:50.862Z,22.24
2018-05-10T06:30:50.857Z,22.33
2018-05-10T06:31:51.285Z,22.38
2018-05-10T06:32:50.896Z,22.41
2018-05-10T06:33:50.975Z,22.33
2018-05-10T06:34:51.003Z,22.41
2018-05-10T06:35:50.989Z,22.45
2018-05-10T06:36:51.117Z,22.41
2018-05-10T06:37:51.407Z,22.41
2018-05-10T06:38:51.087Z,22.44
2018-05-10T06:39:51.122Z,22.45
2018-05-10T06:40:51.147Z,22.51
2018-05-10T06:41:51.186Z,22.48
2018-05-10T06:42:51.214Z,22.46
2018-05-10T06:43:51.592Z,22.56
2018-05-10T06:44:51.274Z,22.46
2018-05-10T06:45:51.313Z,22.59
2018-05-10T06:46:51.450Z,22.56
2018-05-10T06:47:51.389Z,22.59
2018-05-10T06:48:51.402Z,22.61
2018-05-10T06:49:51.903Z,22.59
2018-05-10T06:50:51.464Z,22.74
2018-05-10T06:51:51.498Z,22.67
2018-05-10T06:52:51.530Z,22.75
2018-05-10T06:53:51.564Z,22.70
2018-05-10T06:54:51.595Z,22.72
2018-05-10T06:55:51.928Z,22.70
2018-05-10T06:56:51.661Z,22.70
2018-05-10T06:57:51.693Z,22.72
2018-05-10T06:58:51.726Z,22.74
2018-05-10T06:59:51.763Z,22.72
2018-05-10T07:00:51.787Z,22.78
2018-05-10T07:01:52.121Z,22.74
2018-05-10T07:02:51.895Z,22.78
2018-05-10T07:03:51.896Z,22.85
2018-05-10T07:04:51.920Z,22.86
2018-05-10T07:05:51.955Z,22.79
2018-05-10T07:06:51.998Z,22.85
2018-05-10T07:07:52.326Z,22.84
2018-05-10T07:08:52.049Z,22.82
2018-05-10T07:09:52.227Z,22.88
2018-05-10T07:10:52.189Z,22.84
2018-05-10T07:11:52.152Z,22.89
2018-05-10T07:12:52.185Z,22.81
2018-05-10T07:13:52.213Z,22.82
2018-05-10T07:14:52.545Z,22.84
2018-05-10T07:15:52.285Z,22.84
2018-05-10T07:16:52.314Z,22.88
2018-05-10T07:17:52.350Z,22.91
2018-05-10T07:18:52.377Z,22.93
2018-05-10T07:19:52.415Z,22.96
2018-05-10T07:20:52.443Z,23.01
2018-05-10T07:21:53.124Z,23.03
2018-05-10T07:22:52.513Z,22.94
2018-05-10T07:23:52.544Z,23.00
2018-05-10T07:24:52.586Z,22.99
2018-05-10T07:25:52.608Z,23.01
2018-05-10T07:26:52.647Z,23.01
2018-05-10T07:27:52.668Z,23.00
2018-05-10T07:28:53.003Z,23.04
2018-05-10T07:29:52.739Z,22.99
2018-05-10T07:30:52.768Z,22.91
2018-05-10T07:31:52.903Z,22.91
2018-05-10T07:32:52.945Z,22.79
2018-05-10T07:33:52.867Z,22.72
2018-05-10T07:34:52.929Z,22.74
2018-05-10T07:35:53.230Z,22.75
2018-05-10T07:36:52.961Z,22.70
2018-05-10T07:37:53.012Z,22.67
2018-05-10T07:38:53.032Z,22.63
2018-05-10T07:39:53.062Z,22.61
2018-05-10T07:40:53.092Z,22.76
2018-05-10T07:41:53.134Z,22.76
2018-05-10T07:42:53.511Z,22.69
2018-05-10T07:43:53.207Z,22.67
2018-05-10T07:44:53.277Z,22.67
2018-05-10T07:45:53.257Z,22.59
2018-05-10T07:46:53.288Z,22.54
2018-05-10T07:47:53.382Z,22.57
2018-05-10T07:48:53.355Z,22.49
2018-05-10T07:49:53.689Z,22.49
2018-05-10T07:50:53.419Z,22.56
2018-05-10T07:51:53.468Z,22.49
2018-05-10T07:52:53.490Z,22.52
2018-05-10T07:53:53.522Z,22.52
2018-05-10T07:54:53.552Z,22.49
2018-05-10T07:55:53.613Z,22.56
2018-05-10T07:56:53.979Z,22.49
2018-05-10T07:57:53.643Z,22.59
2018-05-10T07:58:53.739Z,22.60
2018-05-10T07:59:53.741Z,22.59
2018-05-10T08:00:53.754Z,22.59
2018-05-10T08:01:53.829Z,22.49
2018-05-10T08:02:53.807Z,22.60
2018-05-10T08:03:54.204Z,22.51
2018-05-10T08:04:53.879Z,22.46
2018-05-10T08:05:53.903Z,22.51
2018-05-10T08:06:53.963Z,22.39
2018-05-10T08:07:53.976Z,22.46
2018-05-10T08:08:54.008Z,22.42
2018-05-10T08:09:54.048Z,22.31
2018-05-10T08:10:54.383Z,22.29
2018-05-10T08:11:54.099Z,22.24
2018-05-10T08:12:54.171Z,22.24
2018-05-10T08:13:54.163Z,22.11
2018-05-10T08:14:54.210Z,22.11
2018-05-10T08:15:54.230Z,22.17
2018-05-10T08:16:54.319Z,22.06
2018-05-10T08:17:54.654Z,22.01
2018-05-10T08:18:54.326Z,22.06
2018-05-10T08:19:54.362Z,21.99
2018-05-10T08:20:54.398Z,21.98
2018-05-10T08:21:54.425Z,21.90
2018-05-10T08:22:54.461Z,21.83
2018-05-10T08:23:54.491Z,21.93
2018-05-10T08:24:54.822Z,21.93
2018-05-10T08:25:54.611Z,21.93
2018-05-10T08:26:54.594Z,21.96
2018-05-10T08:27:54.665Z,21.93
2018-05-10T08:28:54.653Z,21.85
2018-05-10T08:29:54.680Z,21.93
2018-05-10T08:30:55.015Z,21.94
2018-05-10T08:31:55.051Z,21.96
2018-05-10T08:32:54.776Z,21.85
2018-05-10T08:33:54.911Z,21.86
2018-05-10T08:34:54.900Z,21.91
2018-05-10T08:35:54.901Z,21.96
2018-05-10T08:36:55.229Z,21.90
2018-05-10T08:37:54.951Z,21.82
2018-05-10T08:38:55.020Z,21.86
2018-05-10T08:39:55.003Z,21.79
2018-05-10T08:40:55.055Z,21.70
2018-05-10T08:41:55.099Z,21.70
2018-05-10T08:42:55.407Z,21.71
2018-05-10T08:43:55.136Z,21.67
2018-05-10T08:44:55.253Z,21.66
2018-05-10T08:45:55.199Z,21.64
2018-05-10T08:46:55.242Z,21.71
2018-05-10T08:47:55.264Z,21.56
2018-05-10T08:48:55.600Z,21.52
2018-05-10T08:49:55.430Z,21.55
2018-05-10T08:50:55.387Z,21.58
2018-05-10T08:51:55.884Z,21.53
2018-05-10T08:52:55.529Z,21.58
2018-05-10T08:53:55.455Z,21.56
2018-05-10T08:54:55.865Z,21.56
2018-05-10T08:55:55.596Z,21.45
2018-05-10T08:56:55.569Z,21.45
2018-05-10T08:57:55.595Z,21.52
2018-05-10T08:58:55.735Z,21.38
2018-05-10T08:59:55.720Z,21.38
2018-05-10T09:00:56.105Z,21.40
2018-05-10T09:01:55.712Z,21.33
2018-05-10T09:02:55.796Z,21.34
2018-05-10T09:03:55.813Z,21.34
2018-05-10T09:04:55.810Z,21.26
2018-05-10T09:05:55.846Z,21.27
2018-05-10T09:06:56.233Z,21.19
2018-05-10T09:07:55.906Z,21.06
2018-05-10T09:08:55.958Z,21.03
2018-05-10T09:09:56.006Z,21.08
2018-05-10T09:10:56.028Z,21.09
2018-05-10T09:11:56.034Z,21.00
2018-05-10T09:12:56.365Z,20.96
2018-05-10T09:13:56.102Z,21.00
2018-05-10T09:14:56.123Z,21.01
2018-05-10T09:15:56.169Z,21.06
2018-05-10T09:16:56.267Z,21.05
2018-05-10T09:17:56.219Z,21.16
2018-05-10T09:18:56.933Z,21.26
2018-05-10T09:19:56.368Z,21.30
2018-05-10T09:20:56.323Z,21.45
2018-05-10T09:21:56.359Z,21.56
2018-05-10T09:22:56.401Z,21.66
2018-05-10T09:23:56.415Z,21.74
2018-05-10T09:24:56.813Z,21.91
2018-05-10T09:25:56.491Z,21.96
2018-05-10T09:26:56.622Z,21.89
2018-05-10T09:27:56.600Z,22.02
2018-05-10T09:28:56.581Z,22.05
2018-05-10T09:29:56.602Z,22.15
2018-05-10T09:30:56.996Z,22.23
2018-05-10T09:31:56.667Z,22.31
2018-05-10T09:32:56.716Z,22.23
2018-05-10T09:33:56.820Z,22.36
2018-05-10T09:34:56.772Z,22.36
2018-05-10T09:35:56.798Z,22.45
2018-05-10T09:36:57.132Z,22.51
2018-05-10T09:37:56.859Z,22.49
2018-05-10T09:38:56.903Z,22.52
2018-05-10T09:39:56.925Z,22.61
2018-05-10T09:40:57.012Z,22.61
2018-05-10T09:41:56.990Z,22.66
2018-05-10T09:42:57.343Z,22.69
2018-05-10T09:43:57.229Z,22.74
2018-05-10T09:44:57.160Z,22.70
2018-05-10T09:45:57.118Z,22.75
2018-05-10T09:46:57.148Z,22.85
2018-05-10T09:47:57.184Z,22.84
2018-05-10T09:48:57.217Z,22.85
2018-05-10T09:49:57.597Z,22.82
2018-05-10T09:50:57.305Z,22.97
2018-05-10T09:51:57.312Z,22.97
2018-05-10T09:52:57.343Z,22.93
2018-05-10T09:53:57.380Z,22.93
2018-05-10T09:54:57.418Z,22.97
2018-05-10T09:55:57.459Z,22.97
2018-05-10T09:56:57.840Z,23.03
2018-05-10T09:57:57.506Z,22.99
2018-05-10T09:58:57.542Z,23.04
2018-05-10T09:59:57.737Z,22.99
2018-05-10T10:00:57.659Z,23.01
2018-05-10T10:01:57.635Z,23.11
2018-05-10T10:02:57.735Z,23.12
2018-05-10T10:03:58.002Z,23.07
2018-05-10T10:04:57.753Z,23.09
2018-05-10T10:05:57.768Z,23.11
2018-05-10T10:06:57.800Z,23.18
2018-05-10T10:07:57.872Z,23.18
2018-05-10T10:08:57.865Z,23.25
2018-05-10T10:09:57.922Z,23.22
2018-05-10T10:10:58.236Z,23.15
2018-05-10T10:11:57.968Z,23.25
2018-05-10T10:12:58.005Z,23.29
2018-05-10T10:13:58.036Z,23.31
2018-05-10T10:14:58.079Z,23.34
2018-05-10T10:15:58.249Z,23.31
2018-05-10T10:16:58.127Z,23.42
2018-05-10T10:17:58.469Z,23.41
2018-05-10T10:18:58.222Z,23.45
2018-05-10T10:19:58.262Z,23.47
2018-05-10T10:20:58.360Z,23.42
2018-05-10T10:21:58.303Z,23.53
2018-05-10T10:22:58.337Z,23.53
2018-05-10T10:23:58.362Z,23.53
2018-05-10T10:24:58.763Z,23.57
2018-05-10T10:25:58.440Z,23.56
2018-05-10T10:26:58.585Z,23.52
2018-05-10T10:27:58.495Z,23.54
2018-05-10T10:28:58.528Z,23.56
2018-05-10T10:29:58.558Z,23.54
2018-05-10T10:30:58.609Z,23.67
2018-05-10T10:31:58.927Z,23.59
2018-05-10T10:32:58.721Z,23.60
2018-05-10T10:33:58.712Z,23.62
2018-05-10T10:34:58.730Z,23.59
2018-05-10T10:35:58.803Z,23.60
2018-05-10T10:36:58.838Z,23.64
2018-05-10T10:37:58.882Z,23.68
2018-05-10T10:38:59.177Z,23.60
2018-05-10T10:39:58.904Z,23.67
2018-05-10T10:40:58.936Z,23.60
2018-05-10T10:41:59.027Z,23.63
2018-05-10T10:42:58.988Z,23.67
2018-05-10T10:43:59.102Z,23.62
2018-05-10T10:44:59.114Z,23.62
2018-05-10T10:45:59.399Z,23.68
2018-05-10T10:46:59.127Z,23.62
2018-05-10T10:47:59.157Z,23.60
2018-05-10T10:48:59.224Z,23.64
2018-05-10T10:49:59.250Z,23.56
2018-05-10T10:50:59.284Z,23.68
2018-05-10T10:51:59.294Z,23.59
2018-05-10T10:52:59.634Z,23.59
2018-05-10T10:53:59.396Z,23.60
2018-05-10T10:54:59.400Z,23.57
2018-05-10T10:55:59.419Z,23.68
2018-05-10T10:56:59.461Z,23.67
2018-05-10T10:57:59.505Z,23.69
2018-05-10T10:58:59.524Z,23.69
2018-05-10T10:59:59.927Z,23.64
2018-05-10T11:00:59.647Z,23.69
2018-05-10T11:01:59.655Z,23.68
2018-05-10T11:02:59.687Z,23.64
2018-05-10T11:03:59.686Z,23.64
2018-05-10T11:04:59.764Z,23.64
2018-05-10T11:05:59.755Z,23.71
2018-05-10T11:07:00.196Z,23.74
2018-05-10T11:07:59.818Z,23.67
2018-05-10T11:08:59.851Z,23.71
2018-05-10T11:09:59.982Z,23.67
2018-05-10T11:10:59.996Z,23.71
2018-05-10T11:11:59.953Z,23.64
2018-05-10T11:13:00.004Z,23.67
2018-05-10T11:14:00.082Z,23.71
2018-05-10T11:15:00.060Z,23.67
2018-05-10T11:16:00.088Z,23.64
2018-05-10T11:17:00.171Z,23.68
2018-05-10T11:18:00.162Z,23.69
2018-05-10T11:19:00.537Z,23.67
2018-05-10T11:20:00.226Z,23.69
2018-05-10T11:21:00.284Z,23.69
2018-05-10T11:22:00.580Z,23.72
2018-05-10T11:23:00.315Z,23.67
2018-05-10T11:24:00.349Z,23.67
2018-05-10T11:25:00.683Z,23.69
2018-05-10T11:26:00.412Z,23.69
2018-05-10T11:27:00.445Z,23.67
2018-05-10T11:28:00.509Z,23.69
2018-05-10T11:29:00.577Z,23.69
2018-05-10T11:30:00.543Z,23.69
2018-05-10T11:31:00.877Z,23.67
2018-05-10T11:32:00.664Z,23.67
2018-05-10T11:33:00.820Z,23.64
2018-05-10T11:34:00.690Z,23.71
2018-05-10T11:35:00.717Z,23.68
2018-05-10T11:36:00.752Z,23.67
2018-05-10T11:37:01.111Z,23.67
2018-05-10T11:38:00.864Z,23.67
2018-05-10T11:39:00.908Z,23.67
2018-05-10T11:40:00.914Z,23.67
2018-05-10T11:41:00.919Z,23.69
2018-05-10T11:42:01.054Z,23.69
2018-05-10T11:43:01.279Z,23.69
2018-05-10T11:44:01.015Z,23.77
2018-05-10T11:45:01.044Z,23.72
2018-05-10T11:46:01.165Z,23.64
2018-05-10T11:47:01.124Z,23.64
2018-05-10T11:48:01.137Z,23.75
2018-05-10T11:49:01.487Z,23.67
2018-05-10T11:50:01.221Z,23.68
2018-05-10T11:51:01.238Z,23.68
2018-05-10T11:52:01.275Z,23.74
2018-05-10T11:53:01.358Z,23.71
2018-05-10T11:54:01.428Z,23.68
2018-05-10T11:55:01.675Z,23.79
2018-05-10T11:56:01.430Z,23.69
2018-05-10T11:57:01.440Z,23.79
2018-05-10T11:58:01.465Z,23.79
2018-05-10T11:59:01.502Z,23.74
2018-05-10T12:00:01.535Z,23.78
2018-05-10T12:01:01.866Z,23.79
2018-05-10T12:02:01.598Z,23.77
2018-05-10T12:03:01.690Z,23.81
2018-05-10T12:04:01.690Z,23.74
2018-05-10T12:05:01.749Z,23.78
2018-05-10T12:06:01.823Z,23.78
2018-05-10T12:07:02.122Z,23.81
2018-05-10T12:08:01.847Z,23.86
2018-05-10T12:09:01.832Z,23.71
2018-05-10T12:10:01.870Z,23.89
2018-05-10T12:11:01.900Z,23.86
2018-05-10T12:12:01.960Z,23.86
2018-05-10T12:13:02.036Z,23.87
2018-05-10T12:14:02.099Z,23.89
2018-05-10T12:15:02.049Z,23.89
2018-05-10T12:16:02.067Z,23.89
2018-05-10T12:17:02.101Z,23.87
2018-05-10T12:18:02.131Z,23.84
2018-05-10T12:19:02.513Z,23.82
2018-05-10T12:20:02.198Z,23.81
2018-05-10T12:21:02.229Z,23.87
2018-05-10T12:22:02.266Z,23.90
2018-05-10T12:23:02.318Z,23.89
2018-05-10T12:24:02.406Z,23.90
2018-05-10T12:25:02.669Z,23.92
2018-05-10T12:26:02.426Z,23.86
2018-05-10T12:27:02.430Z,23.86
2018-05-10T12:28:02.523Z,23.84
2018-05-10T12:29:02.495Z,23.92
2018-05-10T12:30:02.589Z,23.89
2018-05-10T12:31:02.635Z,23.90
2018-05-10T12:32:02.901Z,23.84
2018-05-10T12:33:02.813Z,23.87
2018-05-10T12:34:02.658Z,23.89
2018-05-10T12:35:02.691Z,23.90
2018-05-10T12:36:02.782Z,23.82
2018-05-10T12:37:02.758Z,23.90
2018-05-10T12:38:02.795Z,23.84
2018-05-10T12:39:03.183Z,23.90
2018-05-10T12:40:02.860Z,23.96
2018-05-10T12:41:02.896Z,23.90
2018-05-10T12:42:02.930Z,23.97
2018-05-10T12:43:02.982Z,23.99
2018-05-10T12:44:02.985Z,23.89
2018-05-10T12:45:03.020Z,23.84
2018-05-10T12:46:03.424Z,23.84
2018-05-10T12:47:03.155Z,23.89
2018-05-10T12:48:03.157Z,23.87
2018-05-10T12:49:03.183Z,23.96
2018-05-10T12:50:03.204Z,23.96
2018-05-10T12:51:03.244Z,23.92
2018-05-10T12:52:03.251Z,23.87
2018-05-10T12:53:03.752Z,23.94
2018-05-10T12:54:03.338Z,23.94
2018-05-10T12:55:03.355Z,23.94
2018-05-10T12:56:03.548Z,23.99